createdAt,value
2022-09-07T00:03:56.935Z,83.10
2022-09-07T00:08:55.285Z,83.00
2022-09-07T00:13:53.602Z,83.20
2022-09-07T00:18:55.375Z,83.20
2022-09-07T00:23:54.234Z,82.70
2022-09-07T00:28:52.805Z,83.10
2022-09-07T00:33:54.234Z,83.00
2022-09-07T00:38:53.212Z,83.00
2022-09-07T00:43:53.257Z,83.30
2022-09-07T00:49:00.501Z,83.60
2022-09-07T00:54:02.255Z,83.60
2022-09-07T00:59:00.960Z,83.80
2022-09-07T01:04:02.115Z,83.60
2022-09-07T01:09:04.083Z,83.60
2022-09-07T01:14:04.957Z,84.00
2022-09-07T01:19:22.775Z,84.80
2022-09-07T01:24:54.968Z,83.80
2022-09-07T01:30:03.343Z,83.60
2022-09-07T01:35:04.792Z,83.90
2022-09-07T01:40:10.896Z,83.80
2022-09-07T01:45:15.120Z,83.70
2022-09-07T01:50:18.370Z,83.60
2022-09-07T01:55:20.168Z,84.00
2022-09-07T02:00:20.943Z,83.80
2022-09-07T02:05:22.845Z,83.90
2022-09-07T02:10:25.484Z,84.10
2022-09-07T02:15:32.732Z,84.10
2022-09-07T02:20:34.373Z,84.40
2022-09-07T02:25:38.269Z,84.40
2022-09-07T02:30:38.687Z,84.00
2022-09-07T02:35:37.609Z,84.30
2022-09-07T02:40:36.572Z,84.50
2022-09-07T02:45:45.047Z,84.00
2022-09-07T02:51:03.374Z,84.10
2022-09-07T02:56:13.112Z,83.60
2022-09-07T03:01:31.100Z,84.00
2022-09-07T03:06:33.221Z,83.80
2022-09-07T03:11:31.697Z,83.90
2022-09-07T03:16:31.435Z,83.90
2022-09-07T03:21:29.696Z,83.60
2022-09-07T03:26:27.999Z,83.80
2022-09-07T03:31:26.622Z,83.60
2022-09-07T03:36:26.471Z,83.40
2022-09-07T03:41:24.744Z,83.10
2022-09-07T03:46:23.604Z,83.30
2022-09-07T03:51:21.983Z,83.90
2022-09-07T03:56:25.392Z,83.80
2022-09-07T04:01:25.121Z,83.80
2022-09-07T04:06:23.460Z,83.60
2022-09-07T04:11:23.239Z,83.70
2022-09-07T04:16:24.100Z,83.40
2022-09-07T04:21:23.088Z,83.20
2022-09-07T04:26:26.411Z,83.10
2022-09-07T04:31:25.862Z,82.90
2022-09-07T04:36:25.787Z,83.10
2022-09-07T04:41:25.928Z,83.40
2022-09-07T04:46:26.476Z,83.30
2022-09-07T04:51:26.346Z,83.30
2022-09-07T04:56:26.561Z,83.10
2022-09-07T05:01:26.313Z,83.30
2022-09-07T05:06:25.198Z,83.10
2022-09-07T05:11:29.144Z,82.60
2022-09-07T05:16:29.249Z,83.90
2022-09-07T05:21:29.016Z,82.80
2022-09-07T05:26:31.475Z,83.40
2022-09-07T05:31:29.830Z,83.40
2022-09-07T05:36:28.906Z,83.30
2022-09-07T05:41:29.017Z,83.30
2022-09-07T05:46:28.976Z,83.50
2022-09-07T05:51:27.355Z,83.60
2022-09-07T05:56:25.692Z,83.30
2022-09-07T06:01:25.381Z,83.20
2022-09-07T06:06:23.870Z,83.30
2022-09-07T06:11:23.590Z,84.00
2022-09-07T06:16:22.827Z,83.70
2022-09-07T06:21:24.731Z,83.90
2022-09-07T06:26:23.103Z,83.90
2022-09-07T06:31:22.921Z,83.70
2022-09-07T06:36:24.483Z,84.70
2022-09-07T06:52:02.608Z,84.00
2022-09-07T06:57:06.223Z,85.00
2022-09-07T07:02:05.186Z,85.70
2022-09-07T07:07:04.948Z,85.90
2022-09-07T07:12:03.633Z,86.50
2022-09-07T07:17:01.978Z,87.60
2022-09-07T07:27:21.555Z,87.50
2022-09-07T07:32:19.900Z,89.50
2022-09-07T07:37:18.200Z,89.80
2022-09-07T07:42:16.489Z,90.00
2022-09-07T07:47:16.180Z,90.00
2022-09-07T07:57:34.733Z,90.60
2022-09-07T08:02:34.503Z,90.90
2022-09-07T08:07:32.846Z,90.80
2022-09-07T08:12:31.658Z,91.20
2022-09-07T08:17:30.746Z,91.90
2022-09-07T08:22:34.641Z,92.10
2022-09-07T08:27:33.102Z,92.20
2022-09-07T08:32:31.232Z,92.70
2022-09-07T08:37:30.841Z,92.50
2022-09-07T08:42:43.794Z,93.00
2022-09-07T08:47:46.888Z,93.20
2022-09-07T08:52:50.812Z,93.10
2022-09-07T08:57:55.145Z,93.60
2022-09-07T09:08:27.143Z,94.00
2022-09-07T09:13:40.519Z,94.70
2022-09-07T09:18:49.408Z,94.10
2022-09-07T09:23:52.254Z,94.10
2022-09-07T09:28:50.911Z,93.60
2022-09-07T09:34:11.243Z,93.00
2022-09-07T09:39:29.747Z,92.70
2022-09-07T09:44:33.757Z,92.70
2022-09-07T09:49:36.908Z,92.60
2022-09-07T09:54:42.065Z,92.40
2022-09-07T09:59:58.148Z,92.30
2022-09-07T10:04:58.428Z,91.90
2022-09-07T10:09:58.476Z,91.70
2022-09-07T10:14:57.655Z,92.30
2022-09-07T10:20:01.635Z,91.50
2022-09-07T10:25:02.260Z,91.40
2022-09-07T10:30:01.289Z,91.00
2022-09-07T10:35:09.429Z,91.20
2022-09-07T10:40:26.000Z,91.10
2022-09-07T10:45:34.568Z,91.30
2022-09-07T10:50:38.147Z,90.70
2022-09-07T10:55:41.555Z,90.20
2022-09-07T11:00:48.545Z,90.40
2022-09-07T11:06:03.350Z,90.10
2022-09-07T11:11:13.079Z,89.60
2022-09-07T11:27:03.864Z,88.40
2022-09-07T11:32:08.058Z,88.00
2022-09-07T11:37:11.413Z,87.70
2022-09-07T11:47:40.638Z,85.50
2022-09-07T11:52:41.829Z,85.80
2022-09-07T11:57:54.926Z,85.50
2022-09-07T12:03:33.877Z,85.50
2022-09-07T12:08:48.339Z,83.70
2022-09-07T12:14:03.443Z,84.30
2022-09-07T12:19:16.858Z,83.90
2022-09-07T12:24:43.545Z,84.10
2022-09-07T12:29:46.253Z,83.60
2022-09-07T12:34:55.218Z,84.20
2022-09-07T12:40:33.274Z,84.10
2022-09-07T12:45:55.151Z,84.20
2022-09-07T12:50:58.909Z,83.90
2022-09-07T12:56:24.272Z,84.70
2022-09-07T13:01:36.411Z,85.40
2022-09-07T13:07:03.249Z,85.40
2022-09-07T13:12:04.733Z,85.40
2022-09-07T13:17:41.600Z,85.50
2022-09-07T13:23:29.002Z,85.10
2022-09-07T13:28:32.825Z,85.40
2022-09-07T13:33:51.606Z,85.20
2022-09-07T13:38:51.525Z,84.30
2022-09-07T13:43:50.581Z,85.30
2022-09-07T13:48:53.434Z,84.50
2022-09-07T13:54:04.804Z,84.40
2022-09-07T13:59:13.397Z,84.70
2022-09-07T14:04:23.748Z,85.40
2022-09-07T14:09:23.078Z,85.50
2022-09-07T14:14:22.734Z,85.80
2022-09-07T14:19:25.644Z,85.50
2022-09-07T14:24:34.851Z,85.50
2022-09-07T14:29:34.366Z,85.70
2022-09-07T14:34:37.255Z,85.80
2022-09-07T14:39:39.252Z,85.90
2022-09-07T14:44:40.258Z,86.00
2022-09-07T14:49:40.309Z,86.00
2022-09-07T14:54:38.485Z,86.30
2022-09-07T14:59:39.664Z,86.40
2022-09-07T15:04:39.360Z,86.70
2022-09-07T15:09:39.094Z,86.30
2022-09-07T15:14:37.318Z,86.50
2022-09-07T15:19:36.014Z,86.90
2022-09-07T15:24:35.641Z,86.50
2022-09-07T15:29:33.983Z,86.70
2022-09-07T15:34:32.578Z,86.70
2022-09-07T15:39:31.590Z,86.80
2022-09-07T15:44:31.208Z,86.40
2022-09-07T15:49:29.369Z,86.30
2022-09-07T15:54:28.023Z,87.00
2022-09-07T15:59:26.222Z,87.30
2022-09-07T16:04:25.798Z,86.90
2022-09-07T16:09:24.049Z,86.60
2022-09-07T16:14:22.318Z,87.00
2022-09-07T16:19:20.951Z,87.30
2022-09-07T16:24:20.707Z,87.80
2022-09-07T16:29:19.762Z,87.70
2022-09-07T16:34:21.213Z,87.60
2022-09-07T16:39:21.345Z,87.80
2022-09-07T16:44:19.626Z,87.80
2022-09-07T16:49:17.809Z,87.50
2022-09-07T16:54:16.932Z,87.40
2022-09-07T16:59:18.334Z,88.00
2022-09-07T17:04:16.534Z,87.70
2022-09-07T17:09:15.933Z,87.80
2022-09-07T17:14:14.359Z,88.20
2022-09-07T17:19:31.878Z,88.40
2022-09-07T17:24:32.271Z,88.50
2022-09-07T17:29:37.094Z,88.80
2022-09-07T17:34:36.934Z,88.80
2022-09-07T17:39:35.406Z,88.70
2022-09-07T17:44:37.997Z,88.80
2022-09-07T17:49:38.129Z,88.60
2022-09-07T17:54:37.094Z,88.70
2022-09-07T18:04:55.057Z,88.30
2022-09-07T18:09:53.214Z,88.40
2022-09-07T18:14:51.366Z,88.50
2022-09-07T18:19:49.512Z,88.60
2022-09-07T18:24:50.968Z,88.30
2022-09-07T18:29:49.071Z,87.60
2022-09-07T18:34:50.538Z,88.80
2022-09-07T18:39:50.512Z,88.80
2022-09-07T18:50:07.785Z,87.80
2022-09-07T18:55:08.546Z,88.20
2022-09-07T19:00:08.977Z,88.90
2022-09-07T19:10:27.101Z,89.40
2022-09-07T19:15:25.180Z,90.00
2022-09-07T19:20:25.657Z,90.00
2022-09-07T19:25:24.458Z,89.80
2022-09-07T19:30:24.149Z,89.70
2022-09-07T19:35:22.250Z,90.00
2022-09-07T19:40:20.808Z,90.00
2022-09-07T19:45:19.006Z,89.80
2022-09-07T19:50:20.803Z,89.70
2022-09-07T19:55:19.321Z,90.00
2022-09-07T20:00:17.745Z,90.20
2022-09-07T20:05:16.007Z,90.10
2022-09-07T20:10:16.035Z,89.90
2022-09-07T20:15:14.747Z,90.00
2022-09-07T20:20:12.952Z,90.00
2022-09-07T20:25:13.246Z,89.50
2022-09-07T20:30:13.861Z,90.00
2022-09-07T20:35:11.957Z,90.30
2022-09-07T20:40:10.617Z,90.40
2022-09-07T20:45:09.798Z,90.40
2022-09-07T20:50:10.011Z,90.60
2022-09-07T20:55:08.990Z,90.50
2022-09-07T21:00:08.346Z,90.40
2022-09-07T21:05:07.818Z,90.50
2022-09-07T21:12:17.775Z,90.60
2022-09-07T21:17:15.920Z,90.50
2022-09-07T21:22:14.579Z,90.40
2022-09-07T21:27:12.685Z,90.20
2022-09-07T21:32:12.179Z,90.30
2022-09-07T21:37:10.303Z,91.20
2022-09-07T21:42:08.650Z,91.00
2022-09-07T21:47:07.213Z,91.70
2022-09-07T21:52:06.862Z,91.90
2022-09-07T21:57:05.502Z,92.00
2022-09-07T22:02:03.917Z,91.60
2022-09-07T22:07:02.208Z,91.20
2022-09-07T22:12:01.694Z,91.00
2022-09-07T22:17:00.111Z,91.10
2022-09-07T22:21:58.229Z,91.10
2022-09-07T22:26:56.363Z,91.50
2022-09-07T22:31:56.007Z,91.60
2022-09-07T22:36:54.294Z,91.50
2022-09-07T22:41:53.182Z,91.20
2022-09-07T22:46:51.415Z,91.00
2022-09-07T22:51:50.993Z,91.10
2022-09-07T22:56:49.248Z,91.40
2022-09-07T23:01:47.453Z,91.20
2022-09-07T23:06:45.961Z,91.20
2022-09-07T23:11:46.418Z,91.30
2022-09-07T23:16:45.311Z,91.40
2022-09-07T23:21:43.876Z,91.20
2022-09-07T23:26:42.571Z,91.60
2022-09-07T23:31:42.871Z,91.60
2022-09-07T23:36:41.149Z,91.50
2022-09-07T23:41:39.273Z,91.50
2022-09-07T23:46:37.438Z,91.40
2022-09-07T23:51:36.939Z,91.30
2022-09-07T23:56:37.820Z,91.30
